Stoneham, Massachusetts
Current Conditions -  °F | °C
As of 6:56 PM on Sunday 21 Dec 2014 (Local Time) from KBED Reporting Station
Overcast Overcast  
Wind Chill: 32°   Ceiling: 6000
Heat Index: 32°   Visibility: 10mi
Dew Point: 27°   Wind: 3mph
Humidity: 82%   Direction: 340°NNW
Pressure: 30.34"   Gusts: NA
Location:  42.48°N, 71.1°W
Report Text: KBED 212356Z 34003KT 10SM OVC060 00/M03 A3034 RMK AO2 SLP289 60000 T00001028 10011 21006 50008
Loading
Personal Weather Stations






























Interactive Weather Map New forecast layout! Learn more

10-Day Weather Forecast

Advertisements
Track Severe Weather on mobile